Newcomb, New Mexico
Current Conditions -  °F | °C
As of 12:53 PM on Wednesday 26 Nov 2014 (Local Time) from KFMN Reporting Station
Clear Clear  
Wind Chill: 52°   Ceiling: Unl
Heat Index: 52°   Visibility: 10mi
Dew Point: 18°   Wind: 17mph
Humidity: 26%   Direction: 270°W
Pressure: 30.33"   Gusts: NA
Location:  36.29°N, 108.71°W
Report Text: KFMN 261953Z 27015KT 10SM CLR 11/M08 A3033 RMK AO2 SLP269 T01111078
Loading
Personal Weather Stations






























Interactive Weather Map New forecast layout! Learn more

10-Day Weather Forecast

Advertisements
Track Severe Weather on mobile